createdAt,value
2022-10-09T00:01:07.439Z,9.50
2022-10-09T00:03:35.276Z,9.50
2022-10-09T00:06:02.484Z,9.40
2022-10-09T00:08:29.235Z,9.40
2022-10-09T00:10:56.289Z,9.40
2022-10-09T00:13:22.846Z,9.40
2022-10-09T00:15:49.567Z,9.30
2022-10-09T00:18:18.272Z,9.30
2022-10-09T00:20:47.038Z,9.30
2022-10-09T00:23:16.490Z,9.30
2022-10-09T00:25:52.653Z,9.30
2022-10-09T00:28:20.013Z,9.30
2022-10-09T00:30:46.953Z,9.30
2022-10-09T00:33:13.834Z,9.30
2022-10-09T00:35:42.424Z,9.30
2022-10-09T00:38:09.937Z,9.30
2022-10-09T00:40:37.512Z,9.30
2022-10-09T00:43:07.030Z,9.30
2022-10-09T00:45:33.848Z,9.30
2022-10-09T00:48:04.768Z,9.30
2022-10-09T00:50:42.110Z,9.30
2022-10-09T00:53:13.522Z,9.30
2022-10-09T00:55:40.689Z,9.30
2022-10-09T00:58:07.431Z,9.20
2022-10-09T01:00:34.158Z,9.30
2022-10-09T01:03:00.940Z,9.30
2022-10-09T01:05:44.001Z,9.20
2022-10-09T01:08:19.884Z,9.20
2022-10-09T01:10:59.137Z,9.20
2022-10-09T01:13:40.785Z,9.20
2022-10-09T01:16:16.658Z,9.20
2022-10-09T01:19:04.089Z,9.20
2022-10-09T01:21:49.284Z,9.20
2022-10-09T01:24:33.442Z,9.20
2022-10-09T01:27:08.582Z,9.20
2022-10-09T01:29:40.727Z,9.20
2022-10-09T01:32:09.281Z,9.20
2022-10-09T01:34:39.117Z,9.20
2022-10-09T01:37:07.518Z,9.10
2022-10-09T01:39:35.423Z,9.10
2022-10-09T01:42:02.551Z,9.10
2022-10-09T01:44:31.527Z,9.00
2022-10-09T01:46:59.295Z,9.00
2022-10-09T01:49:42.931Z,9.00
2022-10-09T01:52:32.954Z,9.00
2022-10-09T01:55:21.499Z,8.90
2022-10-09T01:58:03.273Z,8.90
2022-10-09T02:00:36.025Z,9.00
2022-10-09T02:03:06.680Z,8.90
2022-10-09T02:05:33.889Z,8.90
2022-10-09T02:08:01.072Z,8.90
2022-10-09T02:10:27.883Z,8.90
2022-10-09T02:12:57.688Z,8.80
2022-10-09T02:15:44.474Z,8.80
2022-10-09T02:18:14.791Z,8.80
2022-10-09T02:20:46.929Z,8.80
2022-10-09T02:23:14.922Z,8.80
2022-10-09T02:25:41.712Z,8.70
2022-10-09T02:28:09.441Z,8.80
2022-10-09T02:30:56.342Z,8.80
2022-10-09T02:33:33.425Z,8.70
2022-10-09T02:36:00.961Z,8.70
2022-10-09T02:38:27.681Z,8.70
2022-10-09T02:40:59.007Z,8.70
2022-10-09T02:43:25.733Z,8.70
2022-10-09T02:45:52.397Z,8.60
2022-10-09T02:48:19.112Z,8.60
2022-10-09T02:50:45.795Z,8.60
2022-10-09T02:53:12.554Z,8.60
2022-10-09T02:55:39.397Z,8.50
2022-10-09T02:58:06.104Z,8.50
2022-10-09T03:00:32.812Z,8.50
2022-10-09T03:02:59.523Z,8.40
2022-10-09T03:05:26.220Z,8.40
2022-10-09T03:07:53.862Z,8.40
2022-10-09T03:10:21.042Z,8.30
2022-10-09T03:12:48.377Z,8.30
2022-10-09T03:15:16.072Z,8.20
2022-10-09T03:17:42.787Z,8.20
2022-10-09T03:20:09.729Z,8.20
2022-10-09T03:22:36.344Z,8.20
2022-10-09T03:25:03.033Z,8.20
2022-10-09T03:27:30.792Z,8.10
2022-10-09T03:29:58.504Z,8.10
2022-10-09T03:32:26.692Z,8.10
2022-10-09T03:34:53.411Z,8.00
2022-10-09T03:37:20.084Z,8.00
2022-10-09T03:39:46.754Z,8.00
2022-10-09T03:42:13.500Z,8.00
2022-10-09T03:44:40.133Z,7.90
2022-10-09T03:47:06.795Z,7.90
2022-10-09T03:49:33.439Z,7.90
2022-10-09T03:52:00.127Z,7.80
2022-10-09T03:54:26.821Z,7.80
2022-10-09T03:56:53.551Z,7.80
2022-10-09T03:59:20.219Z,7.80
2022-10-09T04:01:46.837Z,7.80
2022-10-09T04:04:13.519Z,7.70
2022-10-09T04:06:40.264Z,7.70
2022-10-09T04:09:07.173Z,7.70
2022-10-09T04:11:33.866Z,7.70
2022-10-09T04:14:00.885Z,7.70
2022-10-09T04:16:27.631Z,7.70
2022-10-09T04:18:54.404Z,7.70
2022-10-09T04:21:21.060Z,7.70
2022-10-09T04:23:47.675Z,7.70
2022-10-09T04:26:14.337Z,7.70
2022-10-09T04:28:41.088Z,7.60
2022-10-09T04:31:08.004Z,7.60
2022-10-09T04:33:34.676Z,7.60
2022-10-09T04:36:01.633Z,7.50
2022-10-09T04:38:28.274Z,7.50
2022-10-09T04:41:06.747Z,7.50
2022-10-09T04:43:34.404Z,7.50
2022-10-09T04:46:10.108Z,7.40
2022-10-09T04:48:41.658Z,7.40
2022-10-09T04:51:09.291Z,7.40
2022-10-09T04:53:36.934Z,7.40
2022-10-09T04:56:05.687Z,7.40
2022-10-09T04:58:32.479Z,7.30
2022-10-09T05:00:59.212Z,7.30
2022-10-09T05:03:25.885Z,7.30
2022-10-09T05:05:52.512Z,7.30
2022-10-09T05:08:19.284Z,7.20
2022-10-09T05:10:45.905Z,7.20
2022-10-09T05:13:12.597Z,7.20
2022-10-09T05:15:39.224Z,7.20
2022-10-09T05:18:05.945Z,7.20
2022-10-09T05:20:32.580Z,7.20
2022-10-09T05:22:59.262Z,7.20
2022-10-09T05:25:25.995Z,7.10
2022-10-09T05:27:52.805Z,7.10
2022-10-09T05:30:19.443Z,7.10
2022-10-09T05:32:46.164Z,7.10
2022-10-09T05:35:12.973Z,7.10
2022-10-09T05:37:39.693Z,7.10
2022-10-09T05:40:07.071Z,7.00
2022-10-09T05:42:33.736Z,7.00
2022-10-09T05:45:00.357Z,7.10
2022-10-09T05:47:27.024Z,7.00
2022-10-09T05:49:53.638Z,7.00
2022-10-09T05:52:20.317Z,7.00
2022-10-09T05:54:47.012Z,7.00
2022-10-09T05:57:13.650Z,7.00
2022-10-09T05:59:40.289Z,6.90
2022-10-09T06:02:07.014Z,6.90
2022-10-09T06:04:33.696Z,6.90
2022-10-09T06:07:00.336Z,6.90
2022-10-09T06:09:27.334Z,6.90
2022-10-09T06:11:55.184Z,6.90
2022-10-09T06:14:22.553Z,7.00
2022-10-09T06:16:50.083Z,6.90
2022-10-09T06:19:18.778Z,6.90
2022-10-09T06:21:46.993Z,7.00
2022-10-09T06:24:23.275Z,7.00
2022-10-09T06:26:52.407Z,7.00
2022-10-09T06:29:19.100Z,7.10
2022-10-09T06:31:45.763Z,7.10
2022-10-09T06:34:12.391Z,7.10
2022-10-09T06:36:39.068Z,7.10
2022-10-09T06:39:07.442Z,7.10
2022-10-09T06:41:34.871Z,7.20
2022-10-09T06:44:16.519Z,7.20
2022-10-09T06:46:45.270Z,7.30
2022-10-09T06:49:12.239Z,7.30
2022-10-09T06:51:38.980Z,7.40
2022-10-09T06:54:10.480Z,7.40
2022-10-09T06:56:37.472Z,7.50
2022-10-09T06:59:05.869Z,7.50
2022-10-09T07:01:33.015Z,7.60
2022-10-09T07:04:01.153Z,7.60
2022-10-09T07:06:30.193Z,7.70
2022-10-09T07:09:00.346Z,7.70
2022-10-09T07:11:30.479Z,7.70
2022-10-09T07:13:59.311Z,7.80
2022-10-09T07:16:31.700Z,7.80
2022-10-09T07:19:01.062Z,7.80
2022-10-09T07:21:27.803Z,7.90
2022-10-09T07:23:54.442Z,7.90
2022-10-09T07:26:25.326Z,8.00
2022-10-09T07:28:52.807Z,8.00
2022-10-09T07:31:19.947Z,8.00
2022-10-09T07:33:48.478Z,8.10
2022-10-09T07:36:15.569Z,8.10
2022-10-09T07:38:42.742Z,8.20
2022-10-09T07:41:12.761Z,8.20
2022-10-09T07:43:41.600Z,8.30
2022-10-09T07:46:12.519Z,8.30
2022-10-09T07:48:39.888Z,8.40
2022-10-09T07:51:17.520Z,8.40
2022-10-09T07:53:44.868Z,8.50
2022-10-09T07:56:22.870Z,8.60
2022-10-09T07:58:51.048Z,8.60
2022-10-09T08:01:20.372Z,8.80
2022-10-09T08:03:47.927Z,8.80
2022-10-09T08:06:14.771Z,8.80
2022-10-09T08:08:41.651Z,8.90
2022-10-09T08:11:14.082Z,9.00
2022-10-09T08:13:41.588Z,9.00
2022-10-09T08:16:08.681Z,9.10
2022-10-09T08:18:36.042Z,9.10
2022-10-09T08:21:08.804Z,9.20
2022-10-09T08:23:35.675Z,9.20
2022-10-09T08:26:03.055Z,9.30
2022-10-09T08:28:30.169Z,9.40
2022-10-09T08:30:56.861Z,9.40
2022-10-09T08:33:24.890Z,9.50
2022-10-09T08:35:53.110Z,9.50
2022-10-09T08:38:45.543Z,9.60
2022-10-09T08:41:24.618Z,9.70
2022-10-09T08:44:06.297Z,9.70
2022-10-09T08:47:03.417Z,9.80
2022-10-09T08:49:37.425Z,9.90
2022-10-09T08:52:17.145Z,10.00
2022-10-09T08:54:44.368Z,10.10
2022-10-09T08:57:15.748Z,10.10
2022-10-09T08:59:43.412Z,10.20
2022-10-09T09:02:12.885Z,10.30
2022-10-09T09:05:03.907Z,10.40
2022-10-09T09:07:44.448Z,10.50
2022-10-09T09:10:30.324Z,10.60
2022-10-09T09:13:24.235Z,10.80
2022-10-09T09:16:18.551Z,10.80
2022-10-09T09:18:54.562Z,10.90
2022-10-09T09:21:47.840Z,11.00
2022-10-09T09:24:19.134Z,11.20
2022-10-09T09:26:50.551Z,11.20
2022-10-09T09:29:22.085Z,11.30
2022-10-09T09:31:56.690Z,11.40
2022-10-09T09:34:38.702Z,11.40
2022-10-09T09:37:05.534Z,11.50
2022-10-09T09:40:24.133Z,11.60
2022-10-09T09:42:21.441Z,11.70
2022-10-09T09:44:59.236Z,11.80
2022-10-09T09:47:41.900Z,11.80
2022-10-09T09:50:23.425Z,12.00
2022-10-09T09:52:56.978Z,12.00
2022-10-09T09:55:27.396Z,12.10
2022-10-09T09:58:06.790Z,12.30
2022-10-09T10:00:34.949Z,12.40
2022-10-09T10:03:15.162Z,12.40
2022-10-09T10:05:44.169Z,12.40
2022-10-09T10:08:22.867Z,12.50
2022-10-09T10:10:51.192Z,12.60
2022-10-09T10:13:49.189Z,12.60
2022-10-09T10:16:23.692Z,12.70
2022-10-09T10:18:50.888Z,12.80
2022-10-09T10:21:20.334Z,12.80
2022-10-09T10:23:58.411Z,13.00
2022-10-09T10:26:36.507Z,13.00
2022-10-09T10:29:31.211Z,13.10
2022-10-09T10:32:29.113Z,13.20
2022-10-09T10:35:13.140Z,13.30
2022-10-09T10:38:05.443Z,13.30
2022-10-09T10:40:36.456Z,13.40
2022-10-09T10:43:30.033Z,13.50
2022-10-09T10:46:06.104Z,13.50
2022-10-09T10:48:42.653Z,13.60
2022-10-09T10:51:33.081Z,13.60
2022-10-09T10:54:18.304Z,13.70
2022-10-09T10:57:07.916Z,13.70
2022-10-09T11:00:00.629Z,13.70
2022-10-09T11:02:42.118Z,13.80
2022-10-09T11:05:26.838Z,13.90
2022-10-09T11:08:11.655Z,13.90
2022-10-09T11:10:56.316Z,14.00
2022-10-09T11:13:32.299Z,14.00
2022-10-09T11:16:10.963Z,14.10
2022-10-09T11:18:43.660Z,14.20
2022-10-09T11:21:47.684Z,14.30
2022-10-09T11:24:46.020Z,14.30
2022-10-09T11:27:45.923Z,14.40
2022-10-09T11:30:18.076Z,14.40
2022-10-09T11:32:58.791Z,14.40
2022-10-09T11:35:30.822Z,14.50
2022-10-09T11:38:02.094Z,14.50
2022-10-09T11:40:40.079Z,14.60
2022-10-09T11:43:24.804Z,14.60
2022-10-09T11:46:27.642Z,14.60
2022-10-09T11:49:03.149Z,14.60
2022-10-09T11:51:38.852Z,14.60
2022-10-09T11:54:10.660Z,14.70
2022-10-09T11:56:37.363Z,14.70
2022-10-09T11:59:06.524Z,14.80
2022-10-09T12:01:37.682Z,14.80
2022-10-09T12:04:13.053Z,14.90
2022-10-09T12:06:51.241Z,15.10
2022-10-09T12:09:28.624Z,15.20
2022-10-09T12:12:03.280Z,15.50
2022-10-09T12:14:30.845Z,15.70
2022-10-09T12:16:58.588Z,15.90
2022-10-09T12:19:35.652Z,16.10
2022-10-09T12:22:16.776Z,16.40
2022-10-09T12:24:49.813Z,16.70
2022-10-09T12:27:21.696Z,17.10
2022-10-09T12:29:54.817Z,17.70
2022-10-09T12:32:31.462Z,18.30
2022-10-09T12:34:59.037Z,18.50
2022-10-09T12:37:34.983Z,18.70
2022-10-09T12:40:13.485Z,19.60
2022-10-09T12:42:41.283Z,20.70
2022-10-09T12:45:17.987Z,21.60
2022-10-09T12:47:45.333Z,22.60
2022-10-09T12:50:27.481Z,23.50
2022-10-09T12:52:58.296Z,24.40
2022-10-09T12:55:29.881Z,24.90
2022-10-09T12:58:13.927Z,25.70
2022-10-09T13:00:40.983Z,26.60
2022-10-09T13:03:24.100Z,27.30
2022-10-09T13:05:51.338Z,27.70
2022-10-09T13:08:25.983Z,28.00
2022-10-09T13:10:54.111Z,28.60
2022-10-09T13:13:27.046Z,29.00
2022-10-09T13:16:02.432Z,29.30
2022-10-09T13:18:29.248Z,29.30
2022-10-09T13:21:02.179Z,29.60
2022-10-09T13:23:34.731Z,30.00
2022-10-09T13:26:07.183Z,30.40
2022-10-09T13:28:33.886Z,30.40
2022-10-09T13:31:08.377Z,30.60
2022-10-09T13:33:35.422Z,30.30
2022-10-09T13:36:02.082Z,29.90
2022-10-09T13:38:32.677Z,29.50
2022-10-09T13:41:01.327Z,28.80
2022-10-09T13:43:28.972Z,28.10
2022-10-09T13:45:55.792Z,27.10
2022-10-09T13:48:22.646Z,25.90
2022-10-09T13:50:49.322Z,24.60
2022-10-09T13:53:16.078Z,23.50
2022-10-09T13:55:42.811Z,22.60
2022-10-09T13:58:09.536Z,22.00
2022-10-09T14:00:37.233Z,21.40
2022-10-09T14:03:04.424Z,21.00
2022-10-09T14:05:31.227Z,20.60
2022-10-09T14:07:57.990Z,20.30
2022-10-09T14:10:24.633Z,20.00
2022-10-09T14:12:51.875Z,19.90
2022-10-09T14:15:18.955Z,19.90
2022-10-09T14:17:45.710Z,20.00
2022-10-09T14:20:12.532Z,20.10
2022-10-09T14:22:39.189Z,20.10
2022-10-09T14:25:06.697Z,19.90
2022-10-09T14:30:05.479Z,19.80
2022-10-09T14:32:32.795Z,20.10
2022-10-09T14:34:59.775Z,20.70
2022-10-09T14:37:41.239Z,21.20
2022-10-09T14:40:10.298Z,21.40
2022-10-09T14:42:38.421Z,21.30
2022-10-09T14:45:06.081Z,21.70
2022-10-09T14:47:32.739Z,21.80
2022-10-09T14:49:59.404Z,21.50
2022-10-09T14:52:26.030Z,21.20
2022-10-09T14:54:52.682Z,21.20
2022-10-09T14:57:19.312Z,21.30
2022-10-09T14:59:46.085Z,21.10
2022-10-09T15:02:15.081Z,21.40
2022-10-09T15:04:41.772Z,21.60
2022-10-09T15:07:08.426Z,22.00
2022-10-09T15:09:35.115Z,22.60
2022-10-09T15:12:01.797Z,22.90
2022-10-09T15:14:28.428Z,24.20
2022-10-09T15:16:55.090Z,25.40
2022-10-09T15:19:21.806Z,26.50
2022-10-09T15:21:48.472Z,27.70
2022-10-09T15:24:15.134Z,28.80
2022-10-09T15:26:41.999Z,29.80
2022-10-09T15:29:09.116Z,30.60
2022-10-09T15:31:40.400Z,31.00
2022-10-09T15:34:08.386Z,30.70
2022-10-09T15:36:39.746Z,29.10
2022-10-09T15:39:08.693Z,27.30
2022-10-09T15:41:38.114Z,25.60
2022-10-09T15:44:18.313Z,23.90
2022-10-09T15:46:47.373Z,22.50
2022-10-09T15:49:14.299Z,21.50
2022-10-09T15:51:41.055Z,20.80
2022-10-09T15:54:08.106Z,20.10
2022-10-09T15:56:38.899Z,19.60
2022-10-09T15:59:10.809Z,19.10
2022-10-09T16:01:37.484Z,18.70
2022-10-09T16:04:04.376Z,18.40
2022-10-09T16:06:31.064Z,18.10
2022-10-09T16:08:59.004Z,17.90
2022-10-09T16:11:26.637Z,17.70
2022-10-09T16:13:55.651Z,17.50
2022-10-09T16:16:24.524Z,17.40
2022-10-09T16:18:52.144Z,17.30
2022-10-09T16:21:24.481Z,17.20
2022-10-09T16:23:55.766Z,17.10
2022-10-09T16:26:25.153Z,17.20
2022-10-09T16:28:52.338Z,17.30
2022-10-09T16:31:28.322Z,17.20
2022-10-09T16:33:55.340Z,17.00
2022-10-09T16:36:22.295Z,16.90
2022-10-09T16:38:49.157Z,16.70
2022-10-09T16:41:18.550Z,16.60
2022-10-09T16:43:46.937Z,16.50
2022-10-09T16:46:29.250Z,16.40
2022-10-09T16:48:57.222Z,16.30
2022-10-09T16:51:28.223Z,16.10
2022-10-09T16:53:57.104Z,16.00
2022-10-09T16:56:26.945Z,15.90
2022-10-09T16:58:58.395Z,15.80
2022-10-09T17:01:27.044Z,15.70
2022-10-09T17:03:56.712Z,15.60
2022-10-09T17:06:24.130Z,15.50
2022-10-09T17:08:52.810Z,15.40
2022-10-09T17:11:20.389Z,15.30
2022-10-09T17:13:47.494Z,15.20
2022-10-09T17:16:18.604Z,15.10
2022-10-09T17:18:46.290Z,15.10
2022-10-09T17:21:14.317Z,15.00
2022-10-09T17:23:41.041Z,14.90
2022-10-09T17:26:09.787Z,14.80
2022-10-09T17:28:36.564Z,14.70
2022-10-09T17:31:07.283Z,14.70
2022-10-09T17:33:34.498Z,14.60
2022-10-09T17:36:02.368Z,14.50
2022-10-09T17:38:29.037Z,14.50
2022-10-09T17:40:55.785Z,14.40
2022-10-09T17:43:22.601Z,14.40
2022-10-09T17:45:49.424Z,14.30
2022-10-09T17:48:16.119Z,14.20
2022-10-09T17:50:51.316Z,14.20
2022-10-09T17:53:18.199Z,14.10
2022-10-09T17:55:44.984Z,14.00
2022-10-09T17:58:11.605Z,14.00
2022-10-09T18:00:39.014Z,13.90
2022-10-09T18:03:05.804Z,13.90
2022-10-09T18:05:32.447Z,13.80
2022-10-09T18:07:59.163Z,13.80
2022-10-09T18:10:25.830Z,13.80
2022-10-09T18:12:52.537Z,13.80
2022-10-09T18:15:19.182Z,13.70
2022-10-09T18:17:45.848Z,13.70
2022-10-09T18:20:12.469Z,13.60
2022-10-09T18:22:39.127Z,13.60
2022-10-09T18:25:06.126Z,13.60
2022-10-09T18:27:32.807Z,13.50
2022-10-09T18:29:59.552Z,13.40
2022-10-09T18:32:26.311Z,13.40
2022-10-09T18:34:52.968Z,13.30
2022-10-09T18:37:20.034Z,13.20
2022-10-09T18:39:46.771Z,13.20
2022-10-09T18:42:13.416Z,13.10
2022-10-09T18:44:41.553Z,13.10
2022-10-09T18:47:11.908Z,13.00
2022-10-09T18:49:42.991Z,13.00
2022-10-09T18:52:10.507Z,12.90
2022-10-09T18:54:39.050Z,12.90
2022-10-09T18:57:06.147Z,12.80
2022-10-09T18:59:35.667Z,12.80
2022-10-09T19:02:02.821Z,12.70
2022-10-09T19:04:29.682Z,12.70
2022-10-09T19:06:56.372Z,12.60
2022-10-09T19:09:23.788Z,12.60
2022-10-09T19:11:52.445Z,12.50
2022-10-09T19:14:19.289Z,12.50
2022-10-09T19:16:45.908Z,12.50
2022-10-09T19:19:12.785Z,12.40
2022-10-09T19:21:43.676Z,12.40
2022-10-09T19:24:12.021Z,12.30
2022-10-09T19:26:39.017Z,12.30
2022-10-09T19:29:07.068Z,12.20
2022-10-09T19:31:35.464Z,12.20
2022-10-09T19:34:04.251Z,12.10
2022-10-09T19:36:36.470Z,12.10
2022-10-09T19:39:08.018Z,12.10
2022-10-09T19:41:35.095Z,12.10
2022-10-09T19:44:01.793Z,12.00
2022-10-09T19:46:29.540Z,12.00
2022-10-09T19:48:56.287Z,12.00
2022-10-09T19:51:25.682Z,11.90
2022-10-09T19:53:53.455Z,11.90
2022-10-09T19:56:22.858Z,11.80
2022-10-09T19:58:49.879Z,11.80
2022-10-09T20:01:19.215Z,11.80
2022-10-09T20:03:46.967Z,11.70
2022-10-09T20:06:14.176Z,11.70
2022-10-09T20:08:42.337Z,11.60
2022-10-09T20:11:11.380Z,11.60
2022-10-09T20:13:39.125Z,11.60
2022-10-09T20:16:08.451Z,11.50
2022-10-09T20:18:35.327Z,11.50
2022-10-09T20:21:02.017Z,11.40
2022-10-09T20:23:28.668Z,11.40
2022-10-09T20:26:07.676Z,11.40
2022-10-09T20:28:36.446Z,11.30
2022-10-09T20:31:07.933Z,11.30
2022-10-09T20:33:35.808Z,11.20
2022-10-09T20:36:03.809Z,11.20
2022-10-09T20:38:30.860Z,11.10
2022-10-09T20:41:06.611Z,11.10
2022-10-09T20:43:37.001Z,11.10
2022-10-09T20:46:23.584Z,11.10
2022-10-09T20:48:51.455Z,11.00
2022-10-09T20:51:19.249Z,11.00
2022-10-09T20:53:46.832Z,10.90
2022-10-09T20:56:14.562Z,10.90
2022-10-09T20:58:41.444Z,10.90
2022-10-09T21:01:09.769Z,10.90
2022-10-09T21:03:38.039Z,10.80
2022-10-09T21:06:06.539Z,10.80
2022-10-09T21:08:33.767Z,10.80
2022-10-09T21:11:00.704Z,10.80
2022-10-09T21:13:27.320Z,10.70
2022-10-09T21:15:54.072Z,10.70
2022-10-09T21:18:21.419Z,10.60
2022-10-09T21:20:49.382Z,10.60
2022-10-09T21:23:18.777Z,10.60
2022-10-09T21:25:53.294Z,10.50
2022-10-09T21:28:21.553Z,10.50
2022-10-09T21:30:48.845Z,10.50
2022-10-09T21:33:16.724Z,10.40
2022-10-09T21:35:46.020Z,10.40
2022-10-09T21:38:17.897Z,10.40
2022-10-09T21:40:45.836Z,10.30
2022-10-09T21:43:13.191Z,10.30
2022-10-09T21:45:40.415Z,10.30
2022-10-09T21:48:07.723Z,10.30
2022-10-09T21:50:36.314Z,10.20
2022-10-09T21:53:04.085Z,10.20
2022-10-09T21:55:30.836Z,10.20
2022-10-09T21:57:57.494Z,10.20
2022-10-09T22:00:24.249Z,10.10
2022-10-09T22:02:51.180Z,10.10
2022-10-09T22:05:18.273Z,10.10
2022-10-09T22:07:44.902Z,10.10
2022-10-09T22:10:11.900Z,10.10
2022-10-09T22:12:38.539Z,10.10
2022-10-09T22:15:06.021Z,10.00
2022-10-09T22:17:32.626Z,10.00
2022-10-09T22:19:59.304Z,10.00
2022-10-09T22:22:26.086Z,10.00
2022-10-09T22:24:53.260Z,10.00
2022-10-09T22:27:20.366Z,10.00
2022-10-09T22:29:47.064Z,9.90
2022-10-09T22:32:13.686Z,10.00
2022-10-09T22:34:40.367Z,10.00
2022-10-09T22:37:07.055Z,10.00
2022-10-09T22:39:33.846Z,10.00
2022-10-09T22:42:00.596Z,10.00
2022-10-09T22:44:27.354Z,10.10
2022-10-09T22:46:53.996Z,10.10
2022-10-09T22:49:20.689Z,10.20
2022-10-09T22:51:47.323Z,10.30
2022-10-09T22:54:14.136Z,10.30
2022-10-09T22:56:43.549Z,10.30
2022-10-09T22:59:12.920Z,10.30
2022-10-09T23:01:45.571Z,10.30
2022-10-09T23:04:14.205Z,10.40
2022-10-09T23:06:42.020Z,10.40
2022-10-09T23:09:10.657Z,10.40
2022-10-09T23:11:37.338Z,10.40
2022-10-09T23:14:04.437Z,10.40
2022-10-09T23:16:31.355Z,10.40
2022-10-09T23:19:04.162Z,10.40
2022-10-09T23:21:33.001Z,10.40
2022-10-09T23:23:59.820Z,10.40
2022-10-09T23:26:29.611Z,10.40
2022-10-09T23:29:01.887Z,10.40
2022-10-09T23:31:29.396Z,10.40
2022-10-09T23:33:57.215Z,10.40
2022-10-09T23:36:25.839Z,10.40
2022-10-09T23:38:52.588Z,10.40
2022-10-09T23:41:22.287Z,10.40
2022-10-09T23:43:50.001Z,10.30
2022-10-09T23:46:19.550Z,10.30
2022-10-09T23:48:47.140Z,10.30
2022-10-09T23:51:14.463Z,10.20
2022-10-09T23:53:42.372Z,10.20
2022-10-09T23:56:19.490Z,10.20
2022-10-09T23:58:46.517Z,10.20
